Time,TemperatureF,DewpointF,PressureIn,WindDirection,WindDirectionDegrees,WindSpeedMPH,WindSpeedGustMPH,Humidity,HourlyPrecipIn,Conditions,Clouds,dailyrainin,SoftwareType,DateUTC
2013-01-04 00:00:00,50.6,41.9,30.49,NNE,26,1.0,5.0,72,0.00,CLR,,0.00,WeatherDisplay:10.37,2013-01-03 23:00:00,
2013-01-04 00:15:00,50.5,41.8,30.49,NNE,13,5.0,9.0,72,0.00,CLR,,0.00,WeatherDisplay:10.37,2013-01-03 23:15:00,
2013-01-04 00:20:00,50.5,41.8,30.48,NNE,16,5.0,7.0,72,0.00,CLR,,0.00,WeatherDisplay:10.37,2013-01-03 23:20:00,
2013-01-04 00:30:00,50.6,41.5,30.48,NE,42,2.0,6.0,71,0.00,CLR,,0.00,WeatherDisplay:10.37,2013-01-03 23:30:00,
2013-01-04 00:40:00,51.0,41.5,30.48,NNE,33,3.0,6.0,70,0.00,CLR,,0.00,WeatherDisplay:10.37,2013-01-03 23:40:00,
2013-01-04 00:50:00,51.4,41.2,30.48,NE,39,0.0,4.0,68,0.00,CLR,,0.00,WeatherDisplay:10.37,2013-01-03 23:50:00,
2013-01-04 01:01:00,51.3,41.1,30.47,NNE,17,0.0,1.0,68,0.00,CLR,,0.00,WeatherDisplay:10.37,2013-01-04 00:01:00,
2013-01-04 01:10:00,51.4,41.2,30.47,NW,322,0.0,3.0,68,0.00,CLR,,0.00,WeatherDisplay:10.37,2013-01-04 00:10:00,
2013-01-04 01:20:00,51.4,41.2,30.47,NW,324,0.0,2.0,68,0.00,CLR,,0.00,WeatherDisplay:10.37,2013-01-04 00:20:00,
2013-01-04 01:30:00,51.4,41.2,30.47,NW,325,0.0,3.0,68,0.00,CLR,,0.00,WeatherDisplay:10.37,2013-01-04 00:30:00,
2013-01-04 01:40:00,51.2,41.4,30.47,NW,311,0.0,2.0,69,0.00,CLR,,0.00,WeatherDisplay:10.37,2013-01-04 00:40:00,
2013-01-04 01:50:00,50.9,41.1,30.47,NW,324,0.0,3.0,69,0.00,CLR,,0.00,WeatherDisplay:10.37,2013-01-04 00:50:00,
2013-01-04 02:00:00,50.7,41.3,30.47,NW,309,0.0,4.0,70,0.00,CLR,,0.00,WeatherDisplay:10.37,2013-01-04 01:00:00,
2013-01-04 02:10:00,50.6,41.2,30.47,NW,320,0.0,2.0,70,0.00,CLR,,0.00,WeatherDisplay:10.37,2013-01-04 01:10:00,
2013-01-04 02:20:00,51.2,40.6,30.47,North,352,0.0,2.0,67,0.00,CLR,,0.00,WeatherDisplay:10.37,2013-01-04 01:20:00,
2013-01-04 02:30:00,51.9,40.5,30.47,NNE,16,0.0,3.0,65,0.00,CLR,,0.00,WeatherDisplay:10.37,2013-01-04 01:30:00,
2013-01-04 02:40:00,52.1,40.7,30.46,North,10,0.0,0.0,65,0.00,CLR,,0.00,WeatherDisplay:10.37,2013-01-04 01:40:00,
2013-01-04 02:50:00,51.7,40.7,30.46,North,349,0.0,0.0,66,0.00,CLR,,0.00,WeatherDisplay:10.37,2013-01-04 01:50:00,
2013-01-04 03:00:00,51.4,40.8,30.46,ENE,66,0.0,0.0,67,0.00,CLR,,0.00,WeatherDisplay:10.37,2013-01-04 02:00:00,
2013-01-04 03:10:00,50.8,41.0,30.46,East,88,0.0,0.0,69,0.00,CLR,,0.00,WeatherDisplay:10.37,2013-01-04 02:10:00,
2013-01-04 03:20:00,50.2,41.1,30.46,ENE,64,0.0,0.0,71,0.00,CLR,,0.00,WeatherDisplay:10.37,2013-01-04 02:20:00,
2013-01-04 03:30:00,50.1,41.1,30.45,NE,55,0.0,0.0,71,0.00,CLR,,0.00,WeatherDisplay:10.37,2013-01-04 02:30:00,
2013-01-04 03:40:00,50.3,41.2,30.45,ENE,73,0.0,0.0,71,0.00,CLR,,0.00,WeatherDisplay:10.37,2013-01-04 02:40:00,
2013-01-04 03:50:00,49.9,40.9,30.45,East,79,0.0,0.0,71,0.00,CLR,,0.00,WeatherDisplay:10.37,2013-01-04 02:50:00,
2013-01-04 04:00:00,50.2,41.1,30.45,NE,52,0.0,1.0,71,0.00,CLR,,0.00,WeatherDisplay:10.37,2013-01-04 03:00:00,
2013-01-04 04:10:00,50.5,41.1,30.45,NE,35,2.0,6.0,70,0.00,CLR,,0.00,WeatherDisplay:10.37,2013-01-04 03:10:00,
2013-01-04 04:20:00,50.9,40.7,30.44,NNE,26,1.0,5.0,68,0.00,CLR,,0.00,WeatherDisplay:10.37,2013-01-04 03:20:00,
2013-01-04 04:30:00,51.1,40.9,30.44,NNE,13,0.0,3.0,68,0.00,CLR,,0.00,WeatherDisplay:10.37,2013-01-04 03:30:00,
2013-01-04 04:40:00,51.1,40.9,30.44,NNE,33,0.0,5.0,68,0.00,CLR,,0.00,WeatherDisplay:10.37,2013-01-04 03:40:00,
2013-01-04 04:50:00,51.1,40.5,30.44,NNE,26,0.0,5.0,67,0.00,CLR,,0.00,WeatherDisplay:10.37,2013-01-04 03:50:00,
2013-01-04 05:00:00,51.2,40.6,30.44,NNE,19,1.0,5.0,67,0.00,CLR,,0.00,WeatherDisplay:10.37,2013-01-04 04:00:00,
2013-01-04 05:10:00,51.2,40.6,30.43,NNE,18,0.0,4.0,67,0.00,CLR,,0.00,WeatherDisplay:10.37,2013-01-04 04:10:00,
2013-01-04 05:20:00,51.5,40.5,30.43,NNE,28,0.0,5.0,66,0.00,CLR,,0.00,WeatherDisplay:10.37,2013-01-04 04:20:00,
2013-01-04 05:30:00,51.2,40.7,30.43,NE,45,0.0,3.0,67,0.00,CLR,,0.00,WeatherDisplay:10.37,2013-01-04 04:30:00,
2013-01-04 05:40:00,50.7,40.5,30.43,NE,48,0.0,0.0,68,0.00,CLR,,0.00,WeatherDisplay:10.37,2013-01-04 04:40:00,
2013-01-04 05:50:00,50.2,40.8,30.43,NE,44,0.0,0.0,70,0.00,CLR,,0.00,WeatherDisplay:10.37,2013-01-04 04:50:00,
2013-01-04 06:00:00,49.9,40.5,30.43,North,359,0.0,0.0,70,0.00,CLR,,0.00,WeatherDisplay:10.37,2013-01-04 05:00:00,
2013-01-04 06:05:00,49.9,40.9,30.43,North,358,0.0,2.0,71,0.00,CLR,,0.00,WeatherDisplay:10.37,2013-01-04 05:05:00,
2013-01-04 06:10:00,49.9,40.9,30.43,North,8,0.0,3.0,71,0.00,CLR,,0.00,WeatherDisplay:10.37,2013-01-04 05:10:00,
2013-01-04 06:15:00,49.9,40.9,30.43,North,10,1.0,3.0,71,0.00,CLR,,0.00,WeatherDisplay:10.37,2013-01-04 05:15:00,
2013-01-04 06:20:00,49.9,40.5,30.43,North,3,1.0,5.0,70,0.00,CLR,,0.00,WeatherDisplay:10.37,2013-01-04 05:20:00,
2013-01-04 06:30:00,49.8,40.8,30.43,North,7,0.0,6.0,71,0.00,CLR,,0.00,WeatherDisplay:10.37,2013-01-04 05:30:00,
2013-01-04 06:40:00,49.9,40.5,30.43,NNE,17,2.0,5.0,70,0.00,CLR,,0.00,WeatherDisplay:10.37,2013-01-04 05:40:00,
2013-01-04 06:50:00,49.8,40.8,30.43,NNE,19,0.0,3.0,71,0.00,CLR,,0.00,WeatherDisplay:10.37,2013-01-04 05:50:00,
2013-01-04 07:00:00,49.6,40.6,30.42,NNE,24,0.0,0.0,71,0.00,CLR,,0.00,WeatherDisplay:10.37,2013-01-04 06:00:00,
2013-01-04 07:10:00,49.7,40.7,30.42,SW,235,0.0,0.0,71,0.00,CLR,,0.00,WeatherDisplay:10.37,2013-01-04 06:10:00,
2013-01-04 07:20:00,49.6,40.6,30.42,WSW,250,0.0,0.0,71,0.00,CLR,,0.00,WeatherDisplay:10.37,2013-01-04 06:20:00,
2013-01-04 07:30:00,49.4,40.7,30.42,West,263,0.0,0.0,72,0.00,CLR,,0.00,WeatherDisplay:10.37,2013-01-04 06:30:00,
2013-01-04 07:40:00,49.5,40.8,30.42,West,262,0.0,0.0,72,0.00,CLR,,0.00,WeatherDisplay:10.37,2013-01-04 06:40:00,
2013-01-04 07:50:00,49.5,40.9,30.42,West,279,0.0,0.0,72,0.00,CLR,,0.00,WeatherDisplay:10.37,2013-01-04 06:50:00,
2013-01-04 08:00:00,49.6,41.3,30.42,West,279,0.0,0.0,73,0.00,CLR,,0.00,WeatherDisplay:10.37,2013-01-04 07:00:00,
2013-01-04 08:10:00,49.8,41.5,30.43,West,280,0.0,0.0,73,0.00,CLR,,0.00,WeatherDisplay:10.37,2013-01-04 07:10:00,
2013-01-04 08:20:00,50.3,41.3,30.43,NE,47,1.0,5.0,71,0.00,CLR,,0.00,WeatherDisplay:10.37,2013-01-04 07:20:00,
2013-01-04 08:30:00,49.5,40.9,30.43,NE,46,1.0,4.0,72,0.00,CLR,,0.00,WeatherDisplay:10.37,2013-01-04 07:30:00,
2013-01-04 08:40:00,49.6,40.9,30.44,NE,53,2.0,6.0,72,0.00,CLR,,0.00,WeatherDisplay:10.37,2013-01-04 07:40:00,
2013-01-04 08:50:00,49.9,41.2,30.44,East,83,0.0,1.0,72,0.00,CLR,,0.00,WeatherDisplay:10.37,2013-01-04 07:50:00,
2013-01-04 09:00:00,50.6,41.2,30.43,East,81,0.0,0.0,70,0.00,CLR,,0.00,WeatherDisplay:10.37,2013-01-04 08:00:00,
2013-01-04 09:10:00,51.6,41.4,30.43,East,90,0.0,0.0,68,0.00,CLR,,0.00,WeatherDisplay:10.37,2013-01-04 08:10:00,
2013-01-04 09:20:00,52.1,41.5,30.43,East,79,0.0,0.0,67,0.00,CLR,,0.00,WeatherDisplay:10.37,2013-01-04 08:20:00,
2013-01-04 09:30:00,52.9,42.2,30.43,East,82,0.0,0.0,67,0.00,CLR,,0.00,WeatherDisplay:10.37,2013-01-04 08:30:00,
2013-01-04 09:40:00,52.8,42.1,30.43,ENE,67,0.0,0.0,67,0.00,CLR,,0.00,WeatherDisplay:10.37,2013-01-04 08:40:00,
2013-01-04 09:50:00,53.5,42.4,30.43,NE,35,0.0,0.0,66,0.00,CLR,,0.00,WeatherDisplay:10.37,2013-01-04 08:50:00,
2013-01-04 10:00:00,54.6,42.6,30.43,ENE,64,0.0,1.0,64,0.00,CLR,,0.00,WeatherDisplay:10.37,2013-01-04 09:00:00,
2013-01-04 10:10:00,55.2,42.8,30.43,East,81,0.0,0.0,63,0.00,CLR,,0.00,WeatherDisplay:10.37,2013-01-04 09:10:00,
2013-01-04 10:20:00,56.0,42.8,30.43,East,80,0.0,0.0,61,0.00,CLR,,0.00,WeatherDisplay:10.37,2013-01-04 09:20:00,
2013-01-04 10:30:00,55.7,43.7,30.43,North,11,1.0,3.0,64,0.00,CLR,,0.00,WeatherDisplay:10.37,2013-01-04 09:30:00,
2013-01-04 10:40:00,55.7,44.1,30.41,WSW,243,2.0,7.0,65,0.00,CLR,,0.00,WeatherDisplay:10.37,2013-01-04 09:40:00,
2013-01-04 10:50:00,56.8,44.8,30.41,South,191,0.0,0.0,64,0.00,CLR,,0.00,WeatherDisplay:10.37,2013-01-04 09:50:00,
2013-01-04 11:00:00,57.0,45.3,30.41,NNW,338,2.0,8.0,65,0.00,CLR,,0.00,WeatherDisplay:10.37,2013-01-04 10:00:00,
2013-01-04 11:10:00,56.9,45.3,30.41,North,350,0.0,3.0,65,0.00,CLR,,0.00,WeatherDisplay:10.37,2013-01-04 10:10:00,
2013-01-04 11:20:00,56.2,44.5,30.41,NW,322,0.0,6.0,65,0.00,CLR,,0.00,WeatherDisplay:10.37,2013-01-04 10:20:00,
2013-01-04 11:30:00,55.2,44.1,30.41,NNE,17,3.0,7.0,66,0.00,CLR,,0.00,WeatherDisplay:10.37,2013-01-04 10:30:00,
2013-01-04 11:40:00,54.6,43.9,30.41,North,2,0.0,5.0,67,0.00,CLR,,0.00,WeatherDisplay:10.37,2013-01-04 10:40:00,
2013-01-04 11:50:00,54.3,43.6,30.41,NNE,13,1.0,4.0,67,0.00,CLR,,0.00,WeatherDisplay:10.37,2013-01-04 10:50:00,
2013-01-04 12:00:00,53.7,43.0,30.40,NNE,27,1.0,4.0,67,0.00,CLR,,0.00,WeatherDisplay:10.37,2013-01-04 11:00:00,
2013-01-04 12:10:00,54.4,44.1,30.40,NNE,33,2.0,6.0,68,0.00,CLR,,0.00,WeatherDisplay:10.37,2013-01-04 11:10:00,
2013-01-04 12:20:00,54.7,44.7,30.40,North,349,1.0,6.0,69,0.00,CLR,,0.00,WeatherDisplay:10.37,2013-01-04 11:20:00,
2013-01-04 12:30:00,54.9,44.9,30.39,WNW,297,0.0,4.0,69,0.00,CLR,,0.00,WeatherDisplay:10.37,2013-01-04 11:30:00,
2013-01-04 12:40:00,54.8,44.8,30.39,North,354,0.0,6.0,69,0.00,CLR,,0.00,WeatherDisplay:10.37,2013-01-04 11:40:00,
2013-01-04 12:50:00,54.5,44.9,30.39,North,3,1.0,8.0,70,0.00,CLR,,0.00,WeatherDisplay:10.37,2013-01-04 11:50:00,
2013-01-04 13:00:00,54.7,45.1,30.38,NNW,344,0.0,5.0,70,0.00,CLR,,0.00,WeatherDisplay:10.37,2013-01-04 12:00:00,
2013-01-04 13:10:00,55.0,45.4,30.38,NNE,25,1.0,3.0,70,0.00,CLR,,0.00,WeatherDisplay:10.37,2013-01-04 12:10:00,
2013-01-04 13:20:00,55.4,45.8,30.38,NE,35,0.0,3.0,70,0.00,CLR,,0.00,WeatherDisplay:10.37,2013-01-04 12:20:00,
2013-01-04 13:30:00,55.4,45.4,30.37,NE,39,1.0,3.0,69,0.00,CLR,,0.00,WeatherDisplay:10.37,2013-01-04 12:30:00,
2013-01-04 13:40:00,55.5,45.1,30.36,NNE,18,3.0,6.0,68,0.00,CLR,,0.00,WeatherDisplay:10.37,2013-01-04 12:40:00,
2013-01-04 13:50:00,56.3,45.1,30.36,NNW,341,2.0,6.0,66,0.00,CLR,,0.00,WeatherDisplay:10.37,2013-01-04 12:50:00,
2013-01-04 14:00:00,56.3,45.1,30.37,NNE,15,0.0,0.0,66,0.00,CLR,,0.00,WeatherDisplay:10.37,2013-01-04 13:00:00,
2013-01-04 14:10:00,56.0,45.6,30.36,NNE,19,2.0,6.0,68,0.00,CLR,,0.00,WeatherDisplay:10.37,2013-01-04 13:10:00,
2013-01-04 14:20:00,56.5,45.2,30.36,North,359,0.0,0.0,66,0.00,CLR,,0.00,WeatherDisplay:10.37,2013-01-04 13:20:00,
2013-01-04 14:30:00,57.3,45.6,30.36,NNW,347,0.0,0.0,65,0.00,CLR,,0.00,WeatherDisplay:10.37,2013-01-04 13:30:00,
2013-01-04 14:40:00,57.0,45.4,30.36,NE,46,0.0,2.0,65,0.00,CLR,,0.00,WeatherDisplay:10.37,2013-01-04 13:40:00,
2013-01-04 14:50:00,56.5,45.3,30.36,NE,37,0.0,5.0,66,0.00,CLR,,0.00,WeatherDisplay:10.37,2013-01-04 13:50:00,
2013-01-04 15:00:00,56.2,45.4,30.36,NNE,24,2.0,5.0,67,0.00,CLR,,0.00,WeatherDisplay:10.37,2013-01-04 14:00:00,
2013-01-04 15:10:00,56.3,45.1,30.35,NNE,29,0.0,3.0,66,0.00,CLR,,0.00,WeatherDisplay:10.37,2013-01-04 14:10:00,
2013-01-04 15:20:00,57.0,44.9,30.35,North,1,0.0,0.0,64,0.00,CLR,,0.00,WeatherDisplay:10.37,2013-01-04 14:20:00,
2013-01-04 15:30:00,57.0,43.7,30.35,NNW,347,0.0,0.0,61,0.00,CLR,,0.00,WeatherDisplay:10.37,2013-01-04 14:30:00,
2013-01-04 15:40:00,57.2,44.7,30.36,NNW,337,0.0,0.0,63,0.00,CLR,,0.00,WeatherDisplay:10.37,2013-01-04 14:40:00,
2013-01-04 15:50:00,57.1,44.6,30.35,NW,321,0.0,0.0,63,0.00,CLR,,0.00,WeatherDisplay:10.37,2013-01-04 14:50:00,
2013-01-04 16:00:00,56.7,45.1,30.35,NW,311,0.0,0.0,65,0.00,CLR,,0.00,WeatherDisplay:10.37,2013-01-04 15:00:00,
2013-01-04 16:10:00,56.7,45.4,30.35,NNW,346,0.0,0.0,66,0.00,CLR,,0.00,WeatherDisplay:10.37,2013-01-04 15:10:00,
2013-01-04 16:20:00,56.8,45.2,30.35,North,359,0.0,0.0,65,0.00,CLR,,0.00,WeatherDisplay:10.37,2013-01-04 15:20:00,
2013-01-04 16:30:00,56.9,45.3,30.35,NNE,14,0.0,0.0,65,0.00,CLR,,0.00,WeatherDisplay:10.37,2013-01-04 15:30:00,
2013-01-04 16:40:00,56.0,45.6,30.35,NNE,32,0.0,0.0,68,0.00,CLR,,0.00,WeatherDisplay:10.37,2013-01-04 15:40:00,
2013-01-04 16:50:00,55.1,45.9,30.34,North,356,0.0,0.0,71,0.00,CLR,,0.00,WeatherDisplay:10.37,2013-01-04 15:50:00,
2013-01-04 17:00:00,54.2,45.8,30.35,West,261,0.0,1.0,73,0.00,CLR,,0.00,WeatherDisplay:10.37,2013-01-04 16:00:00,
2013-01-04 17:10:00,53.7,46.0,30.35,West,262,0.0,0.0,75,0.00,CLR,,0.00,WeatherDisplay:10.37,2013-01-04 16:10:00,
2013-01-04 17:20:00,53.5,45.8,30.35,WSW,256,0.0,0.0,75,0.00,CLR,,0.00,WeatherDisplay:10.37,2013-01-04 16:20:00,
2013-01-04 17:30:00,53.5,44.3,30.35,NNW,328,0.0,0.0,71,0.00,CLR,,0.00,WeatherDisplay:10.37,2013-01-04 16:30:00,
2013-01-04 17:40:00,53.9,44.3,30.35,NNE,29,0.0,0.0,70,0.00,CLR,,0.00,WeatherDisplay:10.37,2013-01-04 16:40:00,
2013-01-04 17:50:00,53.9,43.2,30.34,NNW,337,0.0,0.0,67,0.00,CLR,,0.00,WeatherDisplay:10.37,2013-01-04 16:50:00,
2013-01-04 18:00:00,53.9,43.2,30.34,NW,320,0.0,1.0,67,0.00,CLR,,0.00,WeatherDisplay:10.37,2013-01-04 17:00:00,
2013-01-04 18:10:00,53.7,43.8,30.34,West,267,0.0,3.0,69,0.00,CLR,,0.00,WeatherDisplay:10.37,2013-01-04 17:10:00,
2013-01-04 18:20:00,53.0,44.9,30.34,West,266,0.0,0.0,74,0.00,CLR,,0.00,WeatherDisplay:10.37,2013-01-04 17:20:00,
2013-01-04 18:30:00,52.8,45.1,30.34,West,264,0.0,0.0,75,0.00,CLR,,0.00,WeatherDisplay:10.37,2013-01-04 17:30:00,
2013-01-04 18:40:00,52.6,45.5,30.34,West,266,0.0,0.0,77,0.00,CLR,,0.00,WeatherDisplay:10.37,2013-01-04 17:40:00,
2013-01-04 18:50:00,52.2,45.5,30.34,West,266,0.0,0.0,78,0.00,CLR,,0.00,WeatherDisplay:10.37,2013-01-04 17:50:00,
2013-01-04 19:00:00,52.3,45.6,30.34,WSW,256,0.0,0.0,78,0.00,CLR,,0.00,WeatherDisplay:10.37,2013-01-04 18:00:00,
2013-01-04 19:10:00,52.6,44.5,30.34,WNW,286,0.0,0.0,74,0.00,CLR,,0.00,WeatherDisplay:10.37,2013-01-04 18:10:00,
2013-01-04 19:20:00,52.7,43.9,30.34,NNW,342,0.0,0.0,72,0.00,CLR,,0.00,WeatherDisplay:10.37,2013-01-04 18:20:00,
2013-01-04 19:30:00,53.0,44.2,30.34,NW,321,0.0,0.0,72,0.00,CLR,,0.00,WeatherDisplay:10.37,2013-01-04 18:30:00,
2013-01-04 19:40:00,53.1,43.9,30.34,WNW,290,0.0,0.0,71,0.00,CLR,,0.00,WeatherDisplay:10.37,2013-01-04 18:40:00,
2013-01-04 19:50:00,53.1,44.3,30.33,West,273,0.0,0.0,72,0.00,CLR,,0.00,WeatherDisplay:10.37,2013-01-04 18:50:00,
2013-01-04 20:00:00,53.0,44.6,30.34,West,273,0.0,0.0,73,0.00,CLR,,0.00,WeatherDisplay:10.37,2013-01-04 19:00:00,
2013-01-04 20:10:00,52.6,44.9,30.33,WNW,302,0.0,0.0,75,0.00,CLR,,0.00,WeatherDisplay:10.37,2013-01-04 19:10:00,
2013-01-04 20:20:00,52.2,44.5,30.34,WNW,293,0.0,0.0,75,0.00,CLR,,0.00,WeatherDisplay:10.37,2013-01-04 19:20:00,
2013-01-04 20:30:00,52.0,44.7,30.34,WNW,288,0.0,0.0,76,0.00,CLR,,0.00,WeatherDisplay:10.37,2013-01-04 19:30:00,
2013-01-04 20:40:00,52.1,44.8,30.34,WNW,284,0.0,0.0,76,0.00,CLR,,0.00,WeatherDisplay:10.37,2013-01-04 19:40:00,
2013-01-04 20:50:00,52.1,45.1,30.34,West,281,0.0,0.0,77,0.00,CLR,,0.00,WeatherDisplay:10.37,2013-01-04 19:50:00,
2013-01-04 21:00:00,52.0,45.0,30.33,West,281,0.0,0.0,77,0.00,CLR,,0.00,WeatherDisplay:10.37,2013-01-04 20:00:00,
2013-01-04 21:10:00,51.9,44.6,30.33,West,281,0.0,0.0,76,0.00,CLR,,0.00,WeatherDisplay:10.37,2013-01-04 20:10:00,
2013-01-04 21:20:00,51.7,44.7,30.33,West,281,0.0,0.0,77,0.00,CLR,,0.00,WeatherDisplay:10.37,2013-01-04 20:20:00,
2013-01-04 21:30:00,51.6,45.0,30.33,WNW,282,0.0,0.0,78,0.00,CLR,,0.00,WeatherDisplay:10.37,2013-01-04 20:30:00,
2013-01-04 21:40:00,51.4,44.4,30.32,West,260,0.0,0.0,77,0.00,CLR,,0.00,WeatherDisplay:10.37,2013-01-04 20:40:00,
2013-01-04 21:50:00,51.5,44.5,30.32,WSW,243,0.0,0.0,77,0.00,CLR,,0.00,WeatherDisplay:10.37,2013-01-04 20:50:00,
2013-01-04 22:00:00,51.3,44.3,30.32,WSW,243,0.0,0.0,77,0.00,CLR,,0.00,WeatherDisplay:10.37,2013-01-04 21:00:00,
2013-01-04 22:10:00,51.3,44.7,30.32,SE,126,0.0,0.0,78,0.00,CLR,,0.00,WeatherDisplay:10.37,2013-01-04 21:10:00,
2013-01-04 22:20:00,51.1,44.8,30.31,SE,125,0.0,0.0,79,0.00,CLR,,0.00,WeatherDisplay:10.37,2013-01-04 21:20:00,
2013-01-04 22:30:00,50.8,44.5,30.31,ESE,123,0.0,0.0,79,0.00,CLR,,0.00,WeatherDisplay:10.37,2013-01-04 21:30:00,
2013-01-04 22:40:00,50.4,44.1,30.31,ESE,123,0.0,0.0,79,0.00,CLR,,0.00,WeatherDisplay:10.37,2013-01-04 21:40:00,
2013-01-04 22:50:00,50.9,44.2,30.31,ESE,121,0.0,0.0,78,0.00,CLR,,0.00,WeatherDisplay:10.37,2013-01-04 21:50:00,
2013-01-04 23:00:00,50.8,43.8,30.31,ESE,121,0.0,0.0,77,0.00,CLR,,0.00,WeatherDisplay:10.37,2013-01-04 22:00:00,
2013-01-04 23:10:00,50.5,43.5,30.31,ESE,121,0.0,0.0,77,0.00,CLR,,0.00,WeatherDisplay:10.37,2013-01-04 22:10:00,
2013-01-04 23:20:00,50.5,43.9,30.31,ESE,121,0.0,0.0,78,0.00,CLR,,0.00,WeatherDisplay:10.37,2013-01-04 22:20:00,
2013-01-04 23:30:00,51.2,42.8,30.30,SW,217,0.0,0.0,73,0.00,CLR,,0.00,WeatherDisplay:10.37,2013-01-04 22:30:00,
2013-01-04 23:40:00,51.0,42.6,30.30,SW,223,0.0,0.0,73,0.00,CLR,,0.00,WeatherDisplay:10.37,2013-01-04 22:40:00,
2013-01-04 23:50:00,50.6,43.0,30.30,WNW,301,0.0,0.0,75,0.00,CLR,,0.00,WeatherDisplay:10.37,2013-01-04 22:50:00,